Buckley Air Natl Guard Base, Colorado
Current Conditions -  °F | °C
As of 8:58 PM on Saturday 22 Nov 2014 (Local Time) from KBKF Reporting Station
Broken Clouds Broken Clouds  
Wind Chill: 42°   Ceiling: 15000
Heat Index: 45°   Visibility: 10mi
Dew Point: 25°   Wind: 5mph
Humidity: 47%   Direction: 330°NNW
Pressure: 29.59"   Gusts: NA
Location:  39.7351°N, 104.781°W
Report Text: KBKF 230358Z 33004KT 10SM SCT100 BKN150 07/M04 A2959 RMK AO2A SLP988 T00701037
Loading
Personal Weather Stations






























Interactive Weather Map New forecast layout! Learn more

10-Day Weather Forecast

Advertisements
Track Severe Weather on mobile